createdAt,value
2022-09-12T00:01:19.196Z,12.61
2022-09-12T00:03:45.940Z,12.49
2022-09-12T00:06:22.929Z,12.45
2022-09-12T00:08:50.421Z,12.43
2022-09-12T00:11:16.957Z,12.48
2022-09-12T00:13:43.595Z,12.35
2022-09-12T00:16:19.206Z,12.37
2022-09-12T00:18:46.054Z,12.27
2022-09-12T00:21:12.954Z,12.20
2022-09-12T00:23:39.292Z,12.25
2022-09-12T00:26:07.155Z,12.27
2022-09-12T00:28:35.724Z,12.22
2022-09-12T00:31:05.722Z,12.22
2022-09-12T00:33:32.391Z,12.20
2022-09-12T00:35:58.782Z,12.13
2022-09-12T00:38:25.100Z,12.16
2022-09-12T00:40:51.521Z,12.07
2022-09-12T00:43:29.756Z,12.03
2022-09-12T00:45:58.371Z,12.00
2022-09-12T00:48:33.619Z,11.99
2022-09-12T00:51:00.753Z,11.98
2022-09-12T00:53:27.782Z,11.96
2022-09-12T00:55:55.947Z,11.98
2022-09-12T00:58:27.069Z,11.92
2022-09-12T01:00:53.662Z,11.89
2022-09-12T01:03:23.034Z,11.88
2022-09-12T01:05:56.455Z,11.86
2022-09-12T01:08:23.431Z,11.86
2022-09-12T01:10:49.927Z,11.76
2022-09-12T01:13:16.743Z,11.80
2022-09-12T01:15:43.166Z,11.72
2022-09-12T01:18:32.210Z,11.71
2022-09-12T01:21:17.444Z,11.70
2022-09-12T01:23:43.741Z,11.69
2022-09-12T01:26:35.262Z,11.68
2022-09-12T01:29:37.468Z,11.56
2022-09-12T01:32:15.392Z,11.64
2022-09-12T01:35:02.451Z,11.60
2022-09-12T01:37:39.253Z,11.55
2022-09-12T01:40:11.712Z,11.47
2022-09-12T01:42:54.957Z,11.44
2022-09-12T01:45:28.989Z,11.47
2022-09-12T01:48:13.512Z,11.46
2022-09-12T01:50:46.644Z,11.41
2022-09-12T01:53:21.022Z,11.46
2022-09-12T01:56:13.211Z,11.46
2022-09-12T01:59:02.642Z,11.56
2022-09-12T02:01:32.748Z,11.55
2022-09-12T02:04:11.340Z,11.53
2022-09-12T02:06:48.634Z,11.42
2022-09-12T02:09:34.256Z,11.47
2022-09-12T02:12:01.539Z,11.47
2022-09-12T02:14:32.191Z,11.51
2022-09-12T02:17:14.688Z,11.45
2022-09-12T02:19:46.374Z,11.50
2022-09-12T02:22:17.660Z,11.49
2022-09-12T02:24:48.000Z,11.47
2022-09-12T02:27:18.066Z,11.36
2022-09-12T02:29:45.498Z,11.42
2022-09-12T02:32:29.865Z,11.43
2022-09-12T02:35:14.624Z,11.37
2022-09-12T02:38:09.899Z,11.45
2022-09-12T02:40:37.255Z,11.44
2022-09-12T02:43:05.149Z,11.40
2022-09-12T02:45:32.842Z,11.31
2022-09-12T02:48:16.830Z,11.28
2022-09-12T02:50:43.475Z,11.31
2022-09-12T02:53:10.566Z,11.31
2022-09-12T02:55:39.245Z,11.23
2022-09-12T02:58:10.383Z,11.21
2022-09-12T03:01:02.817Z,11.25
2022-09-12T03:03:49.971Z,11.22
2022-09-12T03:06:23.279Z,11.22
2022-09-12T03:09:05.057Z,11.05
2022-09-12T03:11:34.163Z,11.02
2022-09-12T03:14:23.043Z,10.91
2022-09-12T03:16:49.480Z,10.90
2022-09-12T03:19:20.989Z,10.88
2022-09-12T03:22:09.077Z,10.77
2022-09-12T03:24:40.888Z,10.74
2022-09-12T03:27:17.051Z,10.76
2022-09-12T03:29:45.507Z,10.73
2022-09-12T03:32:11.850Z,10.70
2022-09-12T03:34:38.194Z,10.66
2022-09-12T03:37:04.827Z,10.61
2022-09-12T03:39:31.151Z,10.58
2022-09-12T03:41:57.652Z,10.49
2022-09-12T03:44:24.802Z,10.53
2022-09-12T03:46:51.402Z,10.50
2022-09-12T03:49:17.719Z,10.42
2022-09-12T03:51:44.286Z,10.46
2022-09-12T03:54:11.264Z,10.44
2022-09-12T03:56:37.711Z,10.45
2022-09-12T03:59:07.272Z,10.37
2022-09-12T04:01:34.411Z,10.43
2022-09-12T04:04:00.816Z,10.40
2022-09-12T04:06:27.167Z,10.31
2022-09-12T04:08:54.864Z,10.35
2022-09-12T04:11:22.846Z,10.35
2022-09-12T04:13:49.797Z,10.35
2022-09-12T04:16:17.304Z,10.28
2022-09-12T04:18:43.958Z,10.27
2022-09-12T04:21:16.716Z,10.28
2022-09-12T04:23:43.641Z,10.35
2022-09-12T04:26:10.496Z,10.35
2022-09-12T04:28:38.369Z,10.34
2022-09-12T04:31:08.163Z,10.35
2022-09-12T04:33:37.223Z,10.29
2022-09-12T04:36:05.786Z,10.32
2022-09-12T04:38:33.115Z,10.27
2022-09-12T04:40:59.464Z,10.33
2022-09-12T04:43:25.836Z,10.18
2022-09-12T04:45:52.371Z,10.28
2022-09-12T04:48:18.737Z,10.22
2022-09-12T04:50:45.070Z,10.24
2022-09-12T04:53:11.400Z,10.29
2022-09-12T04:55:37.733Z,10.29
2022-09-12T04:58:04.051Z,10.28
2022-09-12T05:00:30.372Z,10.22
2022-09-12T05:02:56.678Z,10.26
2022-09-12T05:05:23.036Z,10.22
2022-09-12T05:07:49.372Z,10.16
2022-09-12T05:10:15.818Z,10.21
2022-09-12T05:12:42.139Z,10.27
2022-09-12T05:15:09.083Z,10.25
2022-09-12T05:17:35.429Z,10.21
2022-09-12T05:20:02.670Z,10.22
2022-09-12T05:22:28.986Z,10.22
2022-09-12T05:24:55.352Z,10.13
2022-09-12T05:27:21.700Z,10.17
2022-09-12T05:29:48.025Z,10.33
2022-09-12T05:32:14.339Z,10.33
2022-09-12T05:34:40.708Z,10.40
2022-09-12T05:37:07.057Z,10.52
2022-09-12T05:39:33.342Z,10.61
2022-09-12T05:41:59.669Z,10.69
2022-09-12T05:44:26.032Z,10.77
2022-09-12T05:46:52.321Z,10.81
2022-09-12T05:49:18.681Z,10.73
2022-09-12T05:51:45.966Z,10.88
2022-09-12T05:54:15.135Z,10.92
2022-09-12T05:56:43.833Z,11.00
2022-09-12T05:59:13.627Z,11.07
2022-09-12T06:01:40.733Z,11.14
2022-09-12T06:04:07.520Z,11.19
2022-09-12T06:06:37.624Z,11.27
2022-09-12T06:09:05.542Z,11.35
2022-09-12T06:11:34.081Z,11.43
2022-09-12T06:14:01.110Z,11.52
2022-09-12T06:16:29.998Z,11.58
2022-09-12T06:18:59.046Z,11.65
2022-09-12T06:21:26.687Z,11.69
2022-09-12T06:23:56.874Z,11.74
2022-09-12T06:26:23.406Z,11.82
2022-09-12T06:28:51.886Z,11.90
2022-09-12T06:31:20.878Z,12.00
2022-09-12T06:33:50.102Z,12.06
2022-09-12T06:36:22.021Z,12.14
2022-09-12T06:38:48.875Z,12.30
2022-09-12T06:41:15.586Z,12.41
2022-09-12T06:43:42.573Z,12.49
2022-09-12T06:46:10.019Z,12.56
2022-09-12T06:48:41.523Z,12.73
2022-09-12T06:51:13.509Z,12.74
2022-09-12T06:53:40.231Z,12.91
2022-09-12T06:56:08.887Z,13.08
2022-09-12T06:58:36.211Z,13.21
2022-09-12T07:01:24.532Z,13.36
2022-09-12T07:03:55.548Z,13.50
2022-09-12T07:06:24.130Z,13.76
2022-09-12T07:08:50.541Z,14.06
2022-09-12T07:11:20.016Z,14.33
2022-09-12T07:13:50.412Z,14.70
2022-09-12T07:16:19.951Z,14.94
2022-09-12T07:18:54.139Z,15.24
2022-09-12T07:21:21.106Z,15.54
2022-09-12T07:23:48.367Z,15.86
2022-09-12T07:26:16.296Z,16.21
2022-09-12T07:28:42.843Z,16.61
2022-09-12T07:31:15.706Z,17.04
2022-09-12T07:33:43.080Z,17.25
2022-09-12T07:36:14.737Z,17.43
2022-09-12T07:38:41.952Z,17.67
2022-09-12T07:41:18.455Z,17.93
2022-09-12T07:43:45.276Z,18.24
2022-09-12T07:46:12.388Z,18.59
2022-09-12T07:48:39.553Z,18.74
2022-09-12T07:51:08.053Z,18.89
2022-09-12T07:53:37.143Z,19.07
2022-09-12T07:56:04.490Z,19.18
2022-09-12T07:58:32.514Z,19.42
2022-09-12T08:01:06.289Z,19.76
2022-09-12T08:03:32.643Z,20.11
2022-09-12T08:06:09.743Z,20.20
2022-09-12T08:08:36.804Z,20.30
2022-09-12T08:11:06.020Z,20.66
2022-09-12T08:13:34.369Z,21.10
2022-09-12T08:16:03.163Z,21.35
2022-09-12T08:18:30.798Z,21.76
2022-09-12T08:20:59.273Z,22.05
2022-09-12T08:23:26.173Z,22.33
2022-09-12T08:25:55.935Z,22.45
2022-09-12T08:28:22.377Z,22.67
2022-09-12T08:30:48.733Z,22.85
2022-09-12T08:33:15.076Z,22.90
2022-09-12T08:35:41.410Z,22.93
2022-09-12T08:38:07.737Z,23.09
2022-09-12T08:40:46.823Z,23.39
2022-09-12T08:43:33.725Z,23.91
2022-09-12T08:46:16.732Z,24.53
2022-09-12T08:48:50.227Z,25.13
2022-09-12T08:51:20.034Z,25.53
2022-09-12T08:53:49.004Z,25.67
2022-09-12T08:56:15.397Z,25.64
2022-09-12T08:58:44.252Z,25.66
2022-09-12T09:01:33.351Z,25.81
2022-09-12T09:04:26.904Z,25.73
2022-09-12T09:07:08.276Z,25.78
2022-09-12T09:09:49.823Z,26.16
2022-09-12T09:12:25.296Z,26.31
2022-09-12T09:14:59.859Z,26.38
2022-09-12T09:17:41.219Z,26.28
2022-09-12T09:20:34.597Z,26.20
2022-09-12T09:23:12.684Z,26.34
2022-09-12T09:26:09.943Z,26.40
2022-09-12T09:28:42.553Z,26.25
2022-09-12T09:31:16.753Z,26.11
2022-09-12T09:33:44.328Z,26.36
2022-09-12T09:36:49.948Z,26.20
2022-09-12T09:39:28.505Z,26.35
2022-09-12T09:42:10.335Z,26.59
2022-09-12T09:44:37.005Z,26.26
2022-09-12T09:47:03.436Z,26.24
2022-09-12T09:49:33.658Z,26.27
2022-09-12T09:52:00.956Z,26.32
2022-09-12T09:54:40.687Z,26.35
2022-09-12T09:57:34.800Z,26.35
2022-09-12T10:00:24.272Z,26.34
2022-09-12T10:03:21.768Z,26.05
2022-09-12T10:05:51.502Z,25.57
2022-09-12T10:08:30.068Z,25.47
2022-09-12T10:11:06.115Z,25.34
2022-09-12T10:13:39.516Z,25.44
2022-09-12T10:16:17.518Z,25.28
2022-09-12T10:18:43.945Z,25.35
2022-09-12T10:21:21.779Z,25.40
2022-09-12T10:23:58.001Z,25.30
2022-09-12T10:26:24.444Z,25.16
2022-09-12T10:28:53.724Z,24.97
2022-09-12T10:31:26.462Z,24.98
2022-09-12T10:33:52.977Z,25.07
2022-09-12T10:36:20.763Z,25.05
2022-09-12T10:39:01.212Z,25.22
2022-09-12T10:41:36.458Z,25.42
2022-09-12T10:44:16.061Z,25.59
2022-09-12T10:46:42.358Z,25.63
2022-09-12T10:49:14.591Z,25.71
2022-09-12T10:51:40.953Z,25.83
2022-09-12T10:54:10.635Z,25.88
2022-09-12T10:56:44.597Z,25.81
2022-09-12T10:59:43.117Z,25.75
2022-09-12T11:02:18.722Z,25.71
2022-09-12T11:05:14.295Z,25.66
2022-09-12T11:07:48.154Z,25.65
2022-09-12T11:10:44.445Z,25.76
2022-09-12T11:13:20.028Z,25.72
2022-09-12T11:16:09.347Z,25.76
2022-09-12T11:19:06.917Z,26.00
2022-09-12T11:22:16.451Z,26.16
2022-09-12T11:25:10.426Z,26.34
2022-09-12T11:28:14.046Z,26.55
2022-09-12T11:31:20.248Z,26.77
2022-09-12T11:33:52.407Z,26.96
2022-09-12T11:36:41.303Z,26.83
2022-09-12T11:39:14.637Z,26.89
2022-09-12T11:42:04.270Z,26.82
2022-09-12T11:44:40.425Z,26.78
2022-09-12T11:47:14.283Z,26.68
2022-09-12T11:49:47.029Z,26.59
2022-09-12T11:52:25.420Z,26.28
2022-09-12T11:54:57.490Z,26.34
2022-09-12T11:57:39.220Z,26.38
2022-09-12T12:00:15.864Z,26.57
2022-09-12T12:03:04.713Z,26.83
2022-09-12T12:05:37.249Z,26.95
2022-09-12T12:08:06.371Z,26.80
2022-09-12T12:10:37.752Z,26.89
2022-09-12T12:13:18.256Z,26.71
2022-09-12T12:15:48.417Z,26.76
2022-09-12T12:18:29.672Z,26.90
2022-09-12T12:21:15.606Z,26.92
2022-09-12T12:24:03.684Z,26.86
2022-09-12T12:26:38.876Z,26.86
2022-09-12T12:29:31.568Z,26.70
2022-09-12T12:32:03.564Z,26.49
2022-09-12T12:34:41.045Z,26.47
2022-09-12T12:37:19.577Z,26.47
2022-09-12T12:39:45.915Z,26.42
2022-09-12T12:42:35.133Z,26.31
2022-09-12T12:45:16.741Z,26.37
2022-09-12T12:47:47.487Z,26.49
2022-09-12T12:50:16.842Z,26.75
2022-09-12T12:52:59.867Z,26.78
2022-09-12T12:55:46.022Z,26.65
2022-09-12T12:58:27.011Z,26.42
2022-09-12T13:01:16.776Z,26.37
2022-09-12T13:03:54.422Z,26.49
2022-09-12T13:06:41.068Z,26.56
2022-09-12T13:09:27.622Z,26.57
2022-09-12T13:12:05.275Z,26.33
2022-09-12T13:14:48.078Z,26.09
2022-09-12T13:17:21.794Z,26.09
2022-09-12T13:19:49.743Z,26.19
2022-09-12T13:22:16.190Z,26.32
2022-09-12T13:24:44.211Z,26.36
2022-09-12T13:27:23.249Z,26.42
2022-09-12T13:29:50.076Z,26.30
2022-09-12T13:32:18.212Z,26.22
2022-09-12T13:35:01.305Z,26.00
2022-09-12T13:37:47.580Z,26.13
2022-09-12T13:40:41.027Z,25.98
2022-09-12T13:43:29.205Z,26.01
2022-09-12T13:45:55.638Z,26.01
2022-09-12T13:48:25.163Z,25.96
2022-09-12T13:50:54.143Z,26.17
2022-09-12T13:53:23.717Z,26.28
2022-09-12T13:55:53.534Z,26.38
2022-09-12T13:58:24.432Z,26.49
2022-09-12T14:01:06.197Z,26.61
2022-09-12T14:03:38.639Z,26.64
2022-09-12T14:06:05.026Z,26.60
2022-09-12T14:08:31.540Z,26.45
2022-09-12T14:10:57.956Z,26.42
2022-09-12T14:13:26.571Z,26.17
2022-09-12T14:15:55.723Z,25.86
2022-09-12T14:18:30.600Z,25.82
2022-09-12T14:21:08.579Z,25.94
2022-09-12T14:23:36.087Z,25.99
2022-09-12T14:26:04.308Z,25.81
2022-09-12T14:28:31.940Z,25.83
2022-09-12T14:31:22.755Z,25.83
2022-09-12T14:33:53.493Z,25.85
2022-09-12T14:36:40.213Z,25.80
2022-09-12T14:39:18.108Z,25.59
2022-09-12T14:41:44.956Z,25.45
2022-09-12T14:44:17.834Z,25.45
2022-09-12T14:46:44.805Z,25.40
2022-09-12T14:49:19.354Z,25.35
2022-09-12T14:51:57.901Z,25.31
2022-09-12T14:54:44.505Z,25.16
2022-09-12T14:57:30.615Z,24.96
2022-09-12T15:00:26.539Z,24.66
2022-09-12T15:02:53.479Z,24.54
2022-09-12T15:05:23.702Z,24.54
2022-09-12T15:07:58.714Z,24.53
2022-09-12T15:10:28.031Z,24.41
2022-09-12T15:13:09.424Z,24.43
2022-09-12T15:15:38.079Z,24.42
2022-09-12T15:18:06.807Z,24.54
2022-09-12T15:20:36.142Z,24.45
2022-09-12T15:23:02.502Z,24.61
2022-09-12T15:25:28.825Z,24.68
2022-09-12T15:27:55.208Z,24.84
2022-09-12T15:30:21.836Z,24.95
2022-09-12T15:32:48.138Z,24.99
2022-09-12T15:35:23.600Z,24.96
2022-09-12T15:37:50.040Z,24.70
2022-09-12T15:40:17.014Z,24.58
2022-09-12T15:42:43.583Z,24.33
2022-09-12T15:45:22.504Z,24.41
2022-09-12T15:47:48.993Z,24.46
2022-09-12T15:50:15.380Z,24.41
2022-09-12T15:52:42.375Z,24.45
2022-09-12T15:55:21.152Z,24.32
2022-09-12T15:57:47.750Z,24.32
2022-09-12T16:00:15.368Z,24.23
2022-09-12T16:02:41.774Z,24.17
2022-09-12T16:05:14.276Z,24.19
2022-09-12T16:07:40.603Z,24.02
2022-09-12T16:10:07.445Z,24.04
2022-09-12T16:12:33.800Z,24.04
2022-09-12T16:15:00.111Z,23.90
2022-09-12T16:17:26.466Z,23.83
2022-09-12T16:19:52.811Z,23.91
2022-09-12T16:22:19.128Z,23.89
2022-09-12T16:24:45.435Z,23.90
2022-09-12T16:27:12.002Z,23.92
2022-09-12T16:29:38.377Z,23.88
2022-09-12T16:32:04.818Z,23.88
2022-09-12T16:34:31.147Z,23.78
2022-09-12T16:36:57.456Z,23.73
2022-09-12T16:39:23.768Z,23.70
2022-09-12T16:41:50.111Z,23.61
2022-09-12T16:44:16.398Z,23.57
2022-09-12T16:46:42.770Z,23.56
2022-09-12T16:49:10.171Z,23.50
2022-09-12T16:51:36.516Z,23.44
2022-09-12T16:54:02.894Z,23.37
2022-09-12T16:56:29.658Z,23.23
2022-09-12T16:58:56.022Z,23.08
2022-09-12T17:01:24.532Z,22.94
2022-09-12T17:03:58.741Z,22.79
2022-09-12T17:06:26.126Z,22.64
2022-09-12T17:08:54.293Z,22.59
2022-09-12T17:11:24.223Z,22.52
2022-09-12T17:14:05.048Z,22.42
2022-09-12T17:16:34.356Z,22.34
2022-09-12T17:19:00.682Z,22.21
2022-09-12T17:21:27.050Z,21.98
2022-09-12T17:23:53.597Z,21.82
2022-09-12T17:26:20.327Z,21.75
2022-09-12T17:28:46.655Z,21.61
2022-09-12T17:31:14.550Z,21.47
2022-09-12T17:33:41.383Z,21.29
2022-09-12T17:36:11.199Z,21.14
2022-09-12T17:38:39.492Z,21.03
2022-09-12T17:41:15.133Z,20.94
2022-09-12T17:43:42.139Z,20.86
2022-09-12T17:46:08.618Z,20.79
2022-09-12T17:48:35.321Z,20.69
2022-09-12T17:51:09.875Z,20.61
2022-09-12T17:53:36.246Z,20.53
2022-09-12T17:56:03.857Z,20.47
2022-09-12T17:58:32.329Z,20.41
2022-09-12T18:01:06.719Z,20.34
2022-09-12T18:03:33.023Z,20.21
2022-09-12T18:05:59.332Z,20.20
2022-09-12T18:08:25.697Z,20.15
2022-09-12T18:10:52.068Z,20.13
2022-09-12T18:13:18.515Z,20.04
2022-09-12T18:15:44.953Z,19.97
2022-09-12T18:18:11.332Z,19.96
2022-09-12T18:20:37.648Z,19.82
2022-09-12T18:23:03.983Z,19.80
2022-09-12T18:25:30.292Z,19.73
2022-09-12T18:27:56.587Z,19.59
2022-09-12T18:30:22.966Z,19.56
2022-09-12T18:32:49.331Z,19.53
2022-09-12T18:35:15.855Z,19.42
2022-09-12T18:37:42.822Z,19.41
2022-09-12T18:40:10.000Z,19.37
2022-09-12T18:42:36.345Z,19.24
2022-09-12T18:45:02.669Z,19.22
2022-09-12T18:47:28.982Z,19.12
2022-09-12T18:49:55.308Z,19.12
2022-09-12T18:52:21.598Z,19.04
2022-09-12T18:54:47.900Z,18.89
2022-09-12T18:57:14.218Z,18.88
2022-09-12T18:59:40.507Z,18.81
2022-09-12T19:02:06.967Z,18.74
2022-09-12T19:04:33.345Z,18.67
2022-09-12T19:06:59.652Z,18.55
2022-09-12T19:09:26.043Z,18.48
2022-09-12T19:11:52.363Z,18.46
2022-09-12T19:14:20.997Z,18.37
2022-09-12T19:16:47.293Z,18.36
2022-09-12T19:19:13.684Z,18.30
2022-09-12T19:21:39.978Z,18.26
2022-09-12T19:24:08.563Z,18.24
2022-09-12T19:26:36.326Z,18.19
2022-09-12T19:29:03.117Z,18.01
2022-09-12T19:31:30.462Z,17.99
2022-09-12T19:34:05.002Z,18.01
2022-09-12T19:36:45.045Z,17.89
2022-09-12T19:39:13.192Z,17.88
2022-09-12T19:41:39.579Z,17.79
2022-09-12T19:44:06.134Z,17.77
2022-09-12T19:46:32.699Z,17.79
2022-09-12T19:48:59.080Z,17.74
2022-09-12T19:51:25.511Z,17.62
2022-09-12T19:53:52.327Z,17.63
2022-09-12T19:56:19.399Z,17.62
2022-09-12T19:58:49.846Z,17.59
2022-09-12T20:01:22.695Z,17.61
2022-09-12T20:03:49.102Z,17.55
2022-09-12T20:06:17.349Z,17.56
2022-09-12T20:08:43.845Z,17.51
2022-09-12T20:11:12.526Z,17.50
2022-09-12T20:13:38.896Z,17.46
2022-09-12T20:16:30.434Z,17.41
2022-09-12T20:19:00.255Z,17.35
2022-09-12T20:21:28.845Z,17.31
2022-09-12T20:23:55.174Z,17.21
2022-09-12T20:26:21.465Z,17.16
2022-09-12T20:28:48.003Z,17.21
2022-09-12T20:31:15.673Z,17.21
2022-09-12T20:33:42.975Z,17.14
2022-09-12T20:36:12.176Z,17.21
2022-09-12T20:38:38.868Z,17.14
2022-09-12T20:41:07.590Z,17.10
2022-09-12T20:43:33.944Z,17.12
2022-09-12T20:46:04.861Z,17.04
2022-09-12T20:48:31.179Z,17.03
2022-09-12T20:51:00.685Z,17.02
2022-09-12T20:53:30.646Z,16.97
2022-09-12T20:56:00.814Z,17.00
2022-09-12T20:58:27.125Z,17.01
2022-09-12T21:00:53.612Z,17.00
2022-09-12T21:03:19.945Z,16.97
2022-09-12T21:05:46.570Z,16.98
2022-09-12T21:08:14.155Z,16.97
2022-09-12T21:10:41.486Z,16.89
2022-09-12T21:13:12.458Z,16.90
2022-09-12T21:15:40.263Z,16.89
2022-09-12T21:18:07.158Z,16.79
2022-09-12T21:20:33.688Z,16.81
2022-09-12T21:23:00.130Z,16.77
2022-09-12T21:25:26.544Z,16.71
2022-09-12T21:27:52.916Z,16.62
2022-09-12T21:30:19.229Z,16.61
2022-09-12T21:32:45.587Z,16.57
2022-09-12T21:35:11.900Z,16.47
2022-09-12T21:37:38.471Z,16.50
2022-09-12T21:40:05.189Z,16.44
2022-09-12T21:42:31.530Z,16.46
2022-09-12T21:44:57.838Z,16.45
2022-09-12T21:47:24.159Z,16.47
2022-09-12T21:49:50.524Z,16.49
2022-09-12T21:52:16.858Z,16.50
2022-09-12T21:54:43.193Z,16.45
2022-09-12T21:57:09.510Z,16.52
2022-09-12T21:59:35.812Z,16.54
2022-09-12T22:02:02.194Z,16.50
2022-09-12T22:04:28.542Z,16.52
2022-09-12T22:06:54.846Z,16.53
2022-09-12T22:09:21.139Z,16.57
2022-09-12T22:11:47.607Z,16.52
2022-09-12T22:14:13.895Z,16.53
2022-09-12T22:16:40.261Z,16.53
2022-09-12T22:19:06.602Z,16.66
2022-09-12T22:21:32.892Z,16.62
2022-09-12T22:23:59.319Z,16.63
2022-09-12T22:26:25.672Z,16.66
2022-09-12T22:28:52.027Z,16.73
2022-09-12T22:31:18.773Z,16.75
2022-09-12T22:33:45.103Z,16.78
2022-09-12T22:36:11.645Z,16.84
2022-09-12T22:38:37.983Z,16.82
2022-09-12T22:41:10.411Z,16.91
2022-09-12T22:43:36.972Z,16.95
2022-09-12T22:46:11.138Z,16.98
2022-09-12T22:48:37.781Z,16.94
2022-09-12T22:51:05.182Z,17.01
2022-09-12T22:53:31.850Z,17.03
2022-09-12T22:55:58.368Z,17.04
2022-09-12T22:58:24.756Z,17.05
2022-09-12T23:00:52.046Z,17.03
2022-09-12T23:03:19.292Z,17.01
2022-09-12T23:05:46.644Z,16.97
2022-09-12T23:08:14.367Z,17.05
2022-09-12T23:10:40.728Z,17.01
2022-09-12T23:13:07.367Z,17.10
2022-09-12T23:15:33.708Z,17.11
2022-09-12T23:18:00.079Z,17.11
2022-09-12T23:20:28.095Z,17.06
2022-09-12T23:22:54.516Z,17.12
2022-09-12T23:25:22.185Z,17.14
2022-09-12T23:27:48.576Z,17.13
2022-09-12T23:30:15.023Z,17.11
2022-09-12T23:32:41.332Z,17.17
2022-09-12T23:35:07.717Z,17.19
2022-09-12T23:37:34.007Z,17.21
2022-09-12T23:40:00.402Z,17.24
2022-09-12T23:42:26.795Z,17.26
2022-09-12T23:44:53.098Z,17.27
2022-09-12T23:47:19.416Z,17.24
2022-09-12T23:49:45.746Z,17.25
2022-09-12T23:52:12.096Z,17.32
2022-09-12T23:54:38.391Z,17.33
2022-09-12T23:57:04.791Z,17.27
2022-09-12T23:59:31.124Z,17.33
